sensor_id;sensor_type;location;lat;lon;timestamp;pressure;altitude;pressure_sealevel;temperature;humidity
7832;BME280;3961;42.058;25.586;2023-06-14T00:01:32;64461.00;;;19.76;100.00
7832;BME280;3961;42.058;25.586;2023-06-14T00:04:00;64447.00;;;19.64;100.00
7832;BME280;3961;42.058;25.586;2023-06-14T00:06:28;64452.47;;;19.71;100.00
7832;BME280;3961;42.058;25.586;2023-06-14T00:08:54;64448.16;;;19.65;100.00
7832;BME280;3961;42.058;25.586;2023-06-14T00:11:20;64471.13;;;19.87;100.00
7832;BME280;3961;42.058;25.586;2023-06-14T00:13:46;64465.44;;;19.77;100.00
7832;BME280;3961;42.058;25.586;2023-06-14T00:16:12;64457.88;;;19.71;100.00
7832;BME280;3961;42.058;25.586;2023-06-14T00:18:37;64452.59;;;19.66;100.00
7832;BME280;3961;42.058;25.586;2023-06-14T00:21:04;64439.63;;;19.60;100.00
7832;BME280;3961;42.058;25.586;2023-06-14T00:23:29;64423.66;;;19.43;100.00
7832;BME280;3961;42.058;25.586;2023-06-14T00:25:55;64422.25;;;19.40;100.00
7832;BME280;3961;42.058;25.586;2023-06-14T00:28:21;64415.13;;;19.38;100.00
7832;BME280;3961;42.058;25.586;2023-06-14T00:30:46;64413.16;;;19.34;100.00
7832;BME280;3961;42.058;25.586;2023-06-14T00:33:12;64410.81;;;19.32;100.00
7832;BME280;3961;42.058;25.586;2023-06-14T00:35:38;64407.53;;;19.32;100.00
7832;BME280;3961;42.058;25.586;2023-06-14T00:38:03;64398.94;;;19.20;100.00
7832;BME280;3961;42.058;25.586;2023-06-14T00:40:29;64423.31;;;19.45;100.00
7832;BME280;3961;42.058;25.586;2023-06-14T00:42:54;64411.75;;;19.31;100.00
7832;BME280;3961;42.058;25.586;2023-06-14T00:45:20;64433.56;;;19.52;100.00
7832;BME280;3961;42.058;25.586;2023-06-14T00:47:46;64435.09;;;19.51;100.00
7832;BME280;3961;42.058;25.586;2023-06-14T00:50:12;64429.50;;;19.49;100.00
7832;BME280;3961;42.058;25.586;2023-06-14T00:52:38;64412.34;;;19.31;100.00
7832;BME280;3961;42.058;25.586;2023-06-14T00:55:05;64424.81;;;19.44;100.00
7832;BME280;3961;42.058;25.586;2023-06-14T00:57:31;64406.16;;;19.28;100.00
7832;BME280;3961;42.058;25.586;2023-06-14T00:59:57;64426.00;;;19.45;100.00
7832;BME280;3961;42.058;25.586;2023-06-14T01:02:22;64423.06;;;19.43;100.00
7832;BME280;3961;42.058;25.586;2023-06-14T01:04:49;64430.06;;;19.49;100.00
7832;BME280;3961;42.058;25.586;2023-06-14T01:10:19;64404.41;;;19.27;100.00
7832;BME280;3961;42.058;25.586;2023-06-14T01:15:20;64413.38;;;19.37;100.00
7832;BME280;3961;42.058;25.586;2023-06-14T01:17:49;64436.50;;;19.55;100.00
7832;BME280;3961;42.058;25.586;2023-06-14T01:20:17;64440.94;;;19.56;100.00
7832;BME280;3961;42.058;25.586;2023-06-14T01:22:52;64451.66;;;19.68;100.00
7832;BME280;3961;42.058;25.586;2023-06-14T01:25:18;64454.44;;;19.75;100.00
7832;BME280;3961;42.058;25.586;2023-06-14T01:28:08;64465.88;;;19.83;100.00
7832;BME280;3961;42.058;25.586;2023-06-14T01:30:37;64477.91;;;19.91;100.00
7832;BME280;3961;42.058;25.586;2023-06-14T01:33:04;64489.81;;;20.03;100.00
7832;BME280;3961;42.058;25.586;2023-06-14T01:35:31;64492.72;;;20.06;100.00
7832;BME280;3961;42.058;25.586;2023-06-14T01:37:57;64486.66;;;19.98;100.00
7832;BME280;3961;42.058;25.586;2023-06-14T01:40:23;64497.91;;;20.03;100.00
7832;BME280;3961;42.058;25.586;2023-06-14T01:42:50;64489.22;;;20.03;100.00
7832;BME280;3961;42.058;25.586;2023-06-14T01:45:18;64437.31;;;19.58;100.00
7832;BME280;3961;42.058;25.586;2023-06-14T01:47:44;64449.91;;;19.66;100.00
7832;BME280;3961;42.058;25.586;2023-06-14T01:50:10;64426.81;;;19.49;100.00
7832;BME280;3961;42.058;25.586;2023-06-14T01:52:37;64423.66;;;19.43;100.00
7832;BME280;3961;42.058;25.586;2023-06-14T01:55:04;64428.91;;;19.48;100.00
7832;BME280;3961;42.058;25.586;2023-06-14T01:57:31;64424.59;;;19.42;100.00
7832;BME280;3961;42.058;25.586;2023-06-14T01:59:57;64420.75;;;19.41;100.00
7832;BME280;3961;42.058;25.586;2023-06-14T02:02:22;64391.78;;;19.18;100.00
7832;BME280;3961;42.058;25.586;2023-06-14T02:04:48;64401.72;;;19.27;100.00
7832;BME280;3961;42.058;25.586;2023-06-14T02:07:14;64399.97;;;19.25;100.00
7832;BME280;3961;42.058;25.586;2023-06-14T02:09:43;64385.19;;;19.10;100.00
7832;BME280;3961;42.058;25.586;2023-06-14T02:12:08;64376.44;;;19.02;100.00
7832;BME280;3961;42.058;25.586;2023-06-14T02:14:35;64377.59;;;19.03;100.00
7832;BME280;3961;42.058;25.586;2023-06-14T02:17:00;64354.88;;;18.84;100.00
7832;BME280;3961;42.058;25.586;2023-06-14T02:19:26;64336.22;;;18.67;100.00
7832;BME280;3961;42.058;25.586;2023-06-14T02:21:51;64342.84;;;18.75;100.00
7832;BME280;3961;42.058;25.586;2023-06-14T02:24:17;64332.34;;;18.66;100.00
7832;BME280;3961;42.058;25.586;2023-06-14T02:26:42;64319.88;;;18.53;100.00
7832;BME280;3961;42.058;25.586;2023-06-14T02:29:08;64337.03;;;18.70;100.00
7832;BME280;3961;42.058;25.586;2023-06-14T02:31:36;64346.72;;;18.76;100.00
7832;BME280;3961;42.058;25.586;2023-06-14T02:34:02;64331.78;;;18.66;100.00
7832;BME280;3961;42.058;25.586;2023-06-14T02:36:27;64330.97;;;18.63;100.00
7832;BME280;3961;42.058;25.586;2023-06-14T02:38:55;64314.28;;;18.51;100.00
7832;BME280;3961;42.058;25.586;2023-06-14T02:41:23;64312.53;;;18.49;100.00
7832;BME280;3961;42.058;25.586;2023-06-14T02:43:48;64302.28;;;18.42;100.00
7832;BME280;3961;42.058;25.586;2023-06-14T02:46:14;64303.94;;;18.37;100.00
7832;BME280;3961;42.058;25.586;2023-06-14T02:48:40;64303.00;;;18.38;100.00
7832;BME280;3961;42.058;25.586;2023-06-14T02:51:05;64309.03;;;18.46;100.00
7832;BME280;3961;42.058;25.586;2023-06-14T02:53:31;64288.41;;;18.26;100.00
7832;BME280;3961;42.058;25.586;2023-06-14T02:55:56;64298.56;;;18.37;100.00
7832;BME280;3961;42.058;25.586;2023-06-14T02:58:22;64293.88;;;18.33;100.00
7832;BME280;3961;42.058;25.586;2023-06-14T03:00:50;64290.63;;;18.32;100.00
7832;BME280;3961;42.058;25.586;2023-06-14T03:03:17;64286.31;;;18.26;100.00
7832;BME280;3961;42.058;25.586;2023-06-14T03:05:44;64309.63;;;18.46;100.00
7832;BME280;3961;42.058;25.586;2023-06-14T03:08:13;64337.03;;;18.70;100.00
7832;BME280;3961;42.058;25.586;2023-06-14T03:10:48;64330.59;;;18.65;100.00
7832;BME280;3961;42.058;25.586;2023-06-14T03:13:15;64351.81;;;18.86;100.00
7832;BME280;3961;42.058;25.586;2023-06-14T03:15:44;64362.78;;;18.88;100.00
7832;BME280;3961;42.058;25.586;2023-06-14T03:18:10;64357.19;;;18.86;100.00
7832;BME280;3961;42.058;25.586;2023-06-14T03:20:37;64404.63;;;19.29;100.00
7832;BME280;3961;42.058;25.586;2023-06-14T03:23:04;64429.72;;;19.51;100.00
7832;BME280;3961;42.058;25.586;2023-06-14T03:25:31;64461.81;;;19.79;100.00
7832;BME280;3961;42.058;25.586;2023-06-14T03:27:57;64507.31;;;20.19;100.00
7832;BME280;3961;42.058;25.586;2023-06-14T03:30:23;64576.59;;;20.76;100.00
7832;BME280;3961;42.058;25.586;2023-06-14T03:32:48;64589.66;;;20.90;100.00
7832;BME280;3961;42.058;25.586;2023-06-14T03:35:14;64607.78;;;21.06;100.00
7832;BME280;3961;42.058;25.586;2023-06-14T03:37:43;64608.13;;;21.04;100.00
7832;BME280;3961;42.058;25.586;2023-06-14T03:40:09;64614.97;;;21.14;100.00
7832;BME280;3961;42.058;25.586;2023-06-14T03:42:35;64669.03;;;21.52;100.00
7832;BME280;3961;42.058;25.586;2023-06-14T03:45:01;64726.22;;;22.06;100.00
7832;BME280;3961;42.058;25.586;2023-06-14T03:47:26;64842.28;;;23.09;100.00
7832;BME280;3961;42.058;25.586;2023-06-14T03:49:52;64933.81;;;23.84;100.00
7832;BME280;3961;42.058;25.586;2023-06-14T03:52:18;65007.09;;;24.48;100.00
7832;BME280;3961;42.058;25.586;2023-06-14T03:54:43;65008.84;;;24.49;100.00
7832;BME280;3961;42.058;25.586;2023-06-14T03:57:09;64960.53;;;24.05;100.00
7832;BME280;3961;42.058;25.586;2023-06-14T03:59:35;64807.28;;;22.74;100.00
7832;BME280;3961;42.058;25.586;2023-06-14T04:02:02;64647.88;;;21.38;100.00
7832;BME280;3961;42.058;25.586;2023-06-14T04:04:28;64592.56;;;20.93;100.00
7832;BME280;3961;42.058;25.586;2023-06-14T04:06:55;64583.81;;;20.85;100.00
7832;BME280;3961;42.058;25.586;2023-06-14T04:09:23;64534.78;;;20.42;100.00
7832;BME280;3961;42.058;25.586;2023-06-14T04:11:51;64572.28;;;20.70;100.00
7832;BME280;3961;42.058;25.586;2023-06-14T04:14:21;64572.94;;;20.78;100.00
7832;BME280;3961;42.058;25.586;2023-06-14T04:16:47;64558.47;;;20.61;100.00
7832;BME280;3961;42.058;25.586;2023-06-14T04:19:14;64532.81;;;20.38;100.00
7832;BME280;3961;42.058;25.586;2023-06-14T04:21:40;64527.53;;;20.34;100.00
7832;BME280;3961;42.058;25.586;2023-06-14T04:24:06;64530.44;;;20.36;100.00
7832;BME280;3961;42.058;25.586;2023-06-14T04:26:32;64563.75;;;20.65;100.00
7832;BME280;3961;42.058;25.586;2023-06-14T04:28:59;64590.59;;;20.89;100.00
7832;BME280;3961;42.058;25.586;2023-06-14T04:31:31;64617.09;;;21.14;100.00
7832;BME280;3961;42.058;25.586;2023-06-14T04:33:59;64608.34;;;21.06;100.00
7832;BME280;3961;42.058;25.586;2023-06-14T04:36:25;64609.53;;;21.07;100.00
7832;BME280;3961;42.058;25.586;2023-06-14T04:38:53;64646.72;;;21.37;100.00
7832;BME280;3961;42.058;25.586;2023-06-14T04:41:21;64642.41;;;21.31;100.00
7832;BME280;3961;42.058;25.586;2023-06-14T04:43:49;64643.19;;;21.34;100.00
7832;BME280;3961;42.058;25.586;2023-06-14T04:46:15;64641.31;;;21.37;100.00
7832;BME280;3961;42.058;25.586;2023-06-14T04:48:41;64635.03;;;21.27;100.00
7832;BME280;3961;42.058;25.586;2023-06-14T04:51:11;64630.69;;;21.21;100.00
7832;BME280;3961;42.058;25.586;2023-06-14T04:53:36;64643.44;;;21.37;100.00
7832;BME280;3961;42.058;25.586;2023-06-14T04:56:02;64624.47;;;21.18;100.00
7832;BME280;3961;42.058;25.586;2023-06-14T04:58:29;64705.50;;;21.86;100.00
7832;BME280;3961;42.058;25.586;2023-06-14T05:00:55;64703.41;;;21.87;100.00
7832;BME280;3961;42.058;25.586;2023-06-14T05:03:25;64685.50;;;21.73;100.00
7832;BME280;3961;42.058;25.586;2023-06-14T05:05:52;64697.91;;;21.79;100.00
7832;BME280;3961;42.058;25.586;2023-06-14T05:08:20;64686.81;;;21.70;100.00
7832;BME280;3961;42.058;25.586;2023-06-14T05:10:49;64667.97;;;21.58;100.00
7832;BME280;3961;42.058;25.586;2023-06-14T05:13:14;64667.75;;;21.56;100.00
7832;BME280;3961;42.058;25.586;2023-06-14T05:15:40;64682.00;;;21.70;100.00
7832;BME280;3961;42.058;25.586;2023-06-14T05:18:06;64703.97;;;21.87;100.00
7832;BME280;3961;42.058;25.586;2023-06-14T05:20:33;64740.03;;;22.16;100.00
7832;BME280;3961;42.058;25.586;2023-06-14T05:23:00;64746.91;;;22.27;100.00
7832;BME280;3961;42.058;25.586;2023-06-14T05:25:26;64752.75;;;22.32;100.00
7832;BME280;3961;42.058;25.586;2023-06-14T05:27:53;64771.47;;;22.48;100.00
7832;BME280;3961;42.058;25.586;2023-06-14T05:30:18;64777.69;;;22.51;100.00
7832;BME280;3961;42.058;25.586;2023-06-14T05:32:44;64780.03;;;22.53;100.00
7832;BME280;3961;42.058;25.586;2023-06-14T05:35:10;64779.44;;;22.53;100.00
7832;BME280;3961;42.058;25.586;2023-06-14T05:37:36;64838.94;;;23.02;100.00
7832;BME280;3961;42.058;25.586;2023-06-14T05:40:03;64878.97;;;23.39;100.00
7832;BME280;3961;42.058;25.586;2023-06-14T05:42:30;64888.31;;;23.47;100.00
7832;BME280;3961;42.058;25.586;2023-06-14T05:44:56;64925.03;;;23.76;100.00
7832;BME280;3961;42.058;25.586;2023-06-14T05:47:21;64942.25;;;23.94;100.00
7832;BME280;3961;42.058;25.586;2023-06-14T05:49:47;64926.78;;;23.78;100.00
7832;BME280;3961;42.058;25.586;2023-06-14T05:52:12;64940.25;;;23.90;100.00
7832;BME280;3961;42.058;25.586;2023-06-14T05:54:38;64956.28;;;24.06;100.00
7832;BME280;3961;42.058;25.586;2023-06-14T05:57:04;64945.53;;;23.94;100.00
7832;BME280;3961;42.058;25.586;2023-06-14T05:59:31;64929.94;;;23.83;100.00
7832;BME280;3961;42.058;25.586;2023-06-14T06:01:57;64959.59;;;24.06;100.00
7832;BME280;3961;42.058;25.586;2023-06-14T06:04:23;64961.94;;;24.08;100.00
7832;BME280;3961;42.058;25.586;2023-06-14T06:06:48;64962.75;;;24.11;100.00
7832;BME280;3961;42.058;25.586;2023-06-14T06:09:14;64986.81;;;24.32;100.00
7832;BME280;3961;42.058;25.586;2023-06-14T06:11:40;64988.56;;;24.34;100.00
7832;BME280;3961;42.058;25.586;2023-06-14T06:14:05;64920.56;;;23.75;100.00
7832;BME280;3961;42.058;25.586;2023-06-14T06:16:31;64944.81;;;23.98;100.00
7832;BME280;3961;42.058;25.586;2023-06-14T06:18:57;64978.00;;;24.25;100.00
7832;BME280;3961;42.058;25.586;2023-06-14T06:21:22;64956.88;;;24.06;100.00
7832;BME280;3961;42.058;25.586;2023-06-14T06:23:48;64955.72;;;24.05;100.00
7832;BME280;3961;42.058;25.586;2023-06-14T06:26:13;64952.78;;;24.03;100.00
7832;BME280;3961;42.058;25.586;2023-06-14T06:28:39;64936.81;;;23.94;100.00
7832;BME280;3961;42.058;25.586;2023-06-14T06:31:05;64965.44;;;24.11;100.00
7832;BME280;3961;42.058;25.586;2023-06-14T06:33:30;64956.28;;;24.06;100.00
7832;BME280;3961;42.058;25.586;2023-06-14T06:35:56;64995.44;;;24.44;100.00
7832;BME280;3961;42.058;25.586;2023-06-14T06:38:21;65038.59;;;24.79;99.83
7832;BME280;3961;42.058;25.586;2023-06-14T06:40:47;65055.19;;;24.89;99.29
7832;BME280;3961;42.058;25.586;2023-06-14T06:43:12;65095.88;;;25.27;97.48
7832;BME280;3961;42.058;25.586;2023-06-14T06:45:41;65150.84;;;25.72;95.94
7832;BME280;3961;42.058;25.586;2023-06-14T06:48:07;65148.13;;;25.72;94.59
7832;BME280;3961;42.058;25.586;2023-06-14T06:50:32;65134.03;;;25.60;93.66
7832;BME280;3961;42.058;25.586;2023-06-14T06:52:58;65220.56;;;26.37;90.81
7832;BME280;3961;42.058;25.586;2023-06-14T06:55:23;65310.63;;;27.10;87.50
7832;BME280;3961;42.058;25.586;2023-06-14T06:57:49;65363.78;;;27.58;84.18
7832;BME280;3961;42.058;25.586;2023-06-14T07:00:15;65459.47;;;28.38;82.44
7832;BME280;3961;42.058;25.586;2023-06-14T07:02:41;65360.44;;;27.58;78.55
7832;BME280;3961;42.058;25.586;2023-06-14T07:05:07;65268.69;;;26.71;81.69
7832;BME280;3961;42.058;25.586;2023-06-14T07:07:32;65285.56;;;26.91;82.72
7832;BME280;3961;42.058;25.586;2023-06-14T07:09:58;65306.53;;;27.06;82.84
7832;BME280;3961;42.058;25.586;2023-06-14T07:12:25;65330.63;;;27.27;81.42
7832;BME280;3961;42.058;25.586;2023-06-14T07:14:51;65282.63;;;26.88;81.29
7832;BME280;3961;42.058;25.586;2023-06-14T07:17:17;65247.38;;;26.58;83.25
7832;BME280;3961;42.058;25.586;2023-06-14T07:19:42;65304.97;;;27.07;81.32
7832;BME280;3961;42.058;25.586;2023-06-14T07:22:08;65271.47;;;26.78;83.34
7832;BME280;3961;42.058;25.586;2023-06-14T07:24:33;65348.25;;;27.42;83.16
7832;BME280;3961;42.058;25.586;2023-06-14T07:27:01;65372.59;;;27.66;80.22
7832;BME280;3961;42.058;25.586;2023-06-14T07:29:28;65374.53;;;27.63;82.26
7832;BME280;3961;42.058;25.586;2023-06-14T07:31:53;65402.75;;;27.87;80.86
7832;BME280;3961;42.058;25.586;2023-06-14T07:34:19;65351.00;;;27.42;81.61
7832;BME280;3961;42.058;25.586;2023-06-14T07:36:45;65449.09;;;28.32;78.16
7832;BME280;3961;42.058;25.586;2023-06-14T07:39:11;65464.78;;;28.43;76.06
7832;BME280;3961;42.058;25.586;2023-06-14T07:41:37;65452.84;;;28.37;76.25
7832;BME280;3961;42.058;25.586;2023-06-14T07:44:02;65450.63;;;28.31;77.69
7832;BME280;3961;42.058;25.586;2023-06-14T07:46:28;65432.38;;;28.15;78.51
7832;BME280;3961;42.058;25.586;2023-06-14T07:48:53;65451.06;;;28.36;76.11
7832;BME280;3961;42.058;25.586;2023-06-14T07:51:19;65476.75;;;28.56;77.45
7832;BME280;3961;42.058;25.586;2023-06-14T07:53:45;65506.56;;;28.79;77.43
7832;BME280;3961;42.058;25.586;2023-06-14T07:56:10;65519.72;;;28.93;76.12
7832;BME280;3961;42.058;25.586;2023-06-14T07:58:36;65484.00;;;28.57;76.91
7832;BME280;3961;42.058;25.586;2023-06-14T08:01:02;65513.28;;;28.87;76.72
7832;BME280;3961;42.058;25.586;2023-06-14T08:03:32;65519.72;;;28.93;77.18
7832;BME280;3961;42.058;25.586;2023-06-14T08:05:57;65542.50;;;29.10;75.91
7832;BME280;3961;42.058;25.586;2023-06-14T08:08:23;65609.06;;;29.67;72.20
7832;BME280;3961;42.058;25.586;2023-06-14T08:10:49;65518.56;;;28.92;72.09
7832;BME280;3961;42.058;25.586;2023-06-14T08:13:14;65494.78;;;28.69;71.87
7832;BME280;3961;42.058;25.586;2023-06-14T08:15:40;65380.03;;;27.70;76.39
7832;BME280;3961;42.058;25.586;2023-06-14T08:18:06;65427.69;;;28.11;74.34
7832;BME280;3961;42.058;25.586;2023-06-14T08:20:31;65527.78;;;28.97;72.75
7832;BME280;3961;42.058;25.586;2023-06-14T08:22:57;65555.47;;;29.21;69.77
7832;BME280;3961;42.058;25.586;2023-06-14T08:25:23;65572.16;;;29.38;71.33
7832;BME280;3961;42.058;25.586;2023-06-14T08:27:49;65585.72;;;29.50;72.11
7832;BME280;3961;42.058;25.586;2023-06-14T08:30:15;65567.22;;;29.31;72.58
7832;BME280;3961;42.058;25.586;2023-06-14T08:32:43;65652.34;;;30.07;70.59
7832;BME280;3961;42.058;25.586;2023-06-14T08:35:08;65569.59;;;29.33;73.43
7832;BME280;3961;42.058;25.586;2023-06-14T08:37:38;65516.41;;;28.92;71.75
7832;BME280;3961;42.058;25.586;2023-06-14T08:40:29;65376.50;;;27.67;74.08
7832;BME280;3961;42.058;25.586;2023-06-14T08:42:54;65403.19;;;27.92;77.07
7832;BME280;3961;42.058;25.586;2023-06-14T08:45:21;65459.47;;;28.38;69.97
7832;BME280;3961;42.058;25.586;2023-06-14T08:47:47;65523.66;;;28.94;70.60
7832;BME280;3961;42.058;25.586;2023-06-14T08:50:24;65549.56;;;29.16;68.56
7832;BME280;3961;42.058;25.586;2023-06-14T08:52:58;65562.13;;;29.29;69.48
7832;BME280;3961;42.058;25.586;2023-06-14T08:55:28;65622.63;;;29.79;67.48
7832;BME280;3961;42.058;25.586;2023-06-14T08:57:55;65655.66;;;30.07;64.69
7832;BME280;3961;42.058;25.586;2023-06-14T09:00:24;65669.59;;;30.17;62.78
7832;BME280;3961;42.058;25.586;2023-06-14T09:02:50;65613.19;;;29.71;64.72
7832;BME280;3961;42.058;25.586;2023-06-14T09:05:22;65664.88;;;30.13;64.63
7832;BME280;3961;42.058;25.586;2023-06-14T09:07:49;65655.66;;;30.07;63.71
7832;BME280;3961;42.058;25.586;2023-06-14T09:10:16;65489.28;;;28.62;65.28
7832;BME280;3961;42.058;25.586;2023-06-14T09:12:42;65531.13;;;29.05;67.36
7832;BME280;3961;42.058;25.586;2023-06-14T09:15:08;65597.88;;;29.58;68.25
7832;BME280;3961;42.058;25.586;2023-06-14T09:17:35;65515.22;;;28.84;66.68
7832;BME280;3961;42.058;25.586;2023-06-14T09:20:05;65469.47;;;28.47;69.76
7832;BME280;3961;42.058;25.586;2023-06-14T09:22:32;65458.50;;;28.40;69.29
7832;BME280;3961;42.058;25.586;2023-06-14T09:24:58;65427.09;;;28.10;68.06
7832;BME280;3961;42.058;25.586;2023-06-14T09:27:28;65358.84;;;27.52;69.94
7832;BME280;3961;42.058;25.586;2023-06-14T09:29:54;65394.97;;;27.85;71.52
7832;BME280;3961;42.058;25.586;2023-06-14T09:32:23;65445.19;;;28.31;72.05
7832;BME280;3961;42.058;25.586;2023-06-14T09:34:50;65513.06;;;28.85;70.98
7832;BME280;3961;42.058;25.586;2023-06-14T09:37:31;65564.66;;;29.27;71.97
7832;BME280;3961;42.058;25.586;2023-06-14T09:39:58;65618.28;;;29.73;68.10
7832;BME280;3961;42.058;25.586;2023-06-14T09:42:24;65618.72;;;29.78;68.12
7832;BME280;3961;42.058;25.586;2023-06-14T09:44:55;65640.88;;;29.95;65.73
7832;BME280;3961;42.058;25.586;2023-06-14T09:47:21;65675.47;;;30.22;65.60
7832;BME280;3961;42.058;25.586;2023-06-14T09:49:48;65696.75;;;30.48;66.15
7832;BME280;3961;42.058;25.586;2023-06-14T09:52:16;65644.88;;;30.03;66.44
7832;BME280;3961;42.058;25.586;2023-06-14T09:54:43;65646.00;;;29.97;65.84
7832;BME280;3961;42.058;25.586;2023-06-14T09:57:11;65658.59;;;30.10;64.67
7832;BME280;3961;42.058;25.586;2023-06-14T09:59:40;65593.78;;;29.54;65.72
7832;BME280;3961;42.058;25.586;2023-06-14T10:02:11;65579.47;;;29.47;65.99
7832;BME280;3961;42.058;25.586;2023-06-14T10:04:42;65540.72;;;29.08;67.60
7832;BME280;3961;42.058;25.586;2023-06-14T10:07:12;65537.19;;;29.05;67.89
7832;BME280;3961;42.058;25.586;2023-06-14T10:09:38;65496.75;;;28.73;68.21
7832;BME280;3961;42.058;25.586;2023-06-14T10:12:07;65483.59;;;28.59;67.97
7832;BME280;3961;42.058;25.586;2023-06-14T10:14:32;65470.66;;;28.48;67.88
7832;BME280;3961;42.058;25.586;2023-06-14T10:17:09;65499.50;;;28.73;67.71
7832;BME280;3961;42.058;25.586;2023-06-14T10:19:54;65475.59;;;28.55;67.73
7832;BME280;3961;42.058;25.586;2023-06-14T10:22:26;65510.13;;;28.82;66.67
7832;BME280;3961;42.058;25.586;2023-06-14T10:24:55;65540.34;;;29.11;66.36
7832;BME280;3961;42.058;25.586;2023-06-14T10:27:20;65545.81;;;29.11;65.40
7832;BME280;3961;42.058;25.586;2023-06-14T10:32:18;65609.66;;;29.68;64.98
7832;BME280;3961;42.058;25.586;2023-06-14T10:34:44;65608.88;;;29.65;65.08
7832;BME280;3961;42.058;25.586;2023-06-14T10:37:13;65627.94;;;29.84;63.91
7832;BME280;3961;42.058;25.586;2023-06-14T10:39:40;65574.09;;;29.35;63.61
7832;BME280;3961;42.058;25.586;2023-06-14T10:42:06;65616.53;;;29.71;65.02
7832;BME280;3961;42.058;25.586;2023-06-14T10:44:57;65615.34;;;29.70;64.68
7832;BME280;3961;42.058;25.586;2023-06-14T10:47:30;65698.91;;;30.47;63.71
7832;BME280;3961;42.058;25.586;2023-06-14T10:50:32;65655.06;;;30.07;62.95
7832;BME280;3961;42.058;25.586;2023-06-14T10:52:58;65623.41;;;29.75;65.63
7832;BME280;3961;42.058;25.586;2023-06-14T10:55:24;65667.44;;;30.18;64.49
7832;BME280;3961;42.058;25.586;2023-06-14T10:57:52;65571.72;;;29.33;65.09
7832;BME280;3961;42.058;25.586;2023-06-14T11:00:19;65558.97;;;29.24;67.01
7832;BME280;3961;42.058;25.586;2023-06-14T11:05:55;65560.38;;;29.28;64.91
7832;BME280;3961;42.058;25.586;2023-06-14T11:11:22;65599.44;;;29.57;64.23
7832;BME280;3961;42.058;25.586;2023-06-14T11:13:49;65584.34;;;29.46;64.94
7832;BME280;3961;42.058;25.586;2023-06-14T11:16:17;65620.28;;;29.77;64.77
7832;BME280;3961;42.058;25.586;2023-06-14T11:18:44;65673.34;;;30.23;64.04
7832;BME280;3961;42.058;25.586;2023-06-14T11:21:11;65671.19;;;30.23;61.98
7832;BME280;3961;42.058;25.586;2023-06-14T11:23:36;65702.03;;;30.45;61.59
7832;BME280;3961;42.058;25.586;2023-06-14T11:26:03;65670.78;;;30.18;62.44
7832;BME280;3961;42.058;25.586;2023-06-14T11:28:37;65618.72;;;29.78;63.20
7832;BME280;3961;42.058;25.586;2023-06-14T11:31:03;65556.06;;;29.22;64.51
7832;BME280;3961;42.058;25.586;2023-06-14T11:33:29;65501.03;;;28.72;65.29
7832;BME280;3961;42.058;25.586;2023-06-14T11:35:55;65415.91;;;28.01;67.51
7832;BME280;3961;42.058;25.586;2023-06-14T11:38:20;65426.72;;;28.13;67.48
7832;BME280;3961;42.058;25.586;2023-06-14T11:40:46;65432.97;;;28.16;67.48
7832;BME280;3961;42.058;25.586;2023-06-14T11:43:11;65466.91;;;28.42;67.84
7832;BME280;3961;42.058;25.586;2023-06-14T11:45:38;65525.41;;;28.95;65.88
7832;BME280;3961;42.058;25.586;2023-06-14T11:48:06;65570.75;;;29.34;64.48
7832;BME280;3961;42.058;25.586;2023-06-14T11:50:31;65628.94;;;29.89;62.67
7832;BME280;3961;42.058;25.586;2023-06-14T11:53:01;65680.63;;;30.31;62.31
7832;BME280;3961;42.058;25.586;2023-06-14T11:55:41;65650.94;;;30.03;59.94
7832;BME280;3961;42.058;25.586;2023-06-14T11:58:10;65596.50;;;29.54;62.10
7832;BME280;3961;42.058;25.586;2023-06-14T12:00:36;65698.69;;;30.45;61.94
7832;BME280;3961;42.058;25.586;2023-06-14T12:03:02;65736.47;;;30.77;61.52
7832;BME280;3961;42.058;25.586;2023-06-14T12:05:28;65752.38;;;30.91;59.51
7832;BME280;3961;42.058;25.586;2023-06-14T12:08:01;65731.53;;;30.70;57.74
7832;BME280;3961;42.058;25.586;2023-06-14T12:10:28;65749.41;;;30.88;60.20
7832;BME280;3961;42.058;25.586;2023-06-14T12:12:57;65758.28;;;30.96;59.83
7832;BME280;3961;42.058;25.586;2023-06-14T12:15:24;65787.78;;;31.21;58.99
7832;BME280;3961;42.058;25.586;2023-06-14T12:17:49;65769.50;;;31.05;57.75
7832;BME280;3961;42.058;25.586;2023-06-14T12:20:16;65779.94;;;31.12;57.66
7832;BME280;3961;42.058;25.586;2023-06-14T12:22:54;65781.47;;;31.11;58.50
7832;BME280;3961;42.058;25.586;2023-06-14T12:25:34;65784.28;;;31.18;58.80
7832;BME280;3961;42.058;25.586;2023-06-14T12:28:05;65775.19;;;31.08;58.45
7832;BME280;3961;42.058;25.586;2023-06-14T12:30:31;65778.38;;;31.13;59.11
7832;BME280;3961;42.058;25.586;2023-06-14T12:33:08;65795.84;;;31.26;59.15
7832;BME280;3961;42.058;25.586;2023-06-14T12:35:34;65807.66;;;31.36;57.58
7832;BME280;3961;42.058;25.586;2023-06-14T12:38:00;65816.13;;;31.46;57.21
7832;BME280;3961;42.058;25.586;2023-06-14T12:40:29;65836.19;;;31.63;57.43
7832;BME280;3961;42.058;25.586;2023-06-14T12:43:14;65847.22;;;31.70;56.95
7832;BME280;3961;42.058;25.586;2023-06-14T12:45:40;65856.28;;;31.80;57.18
7832;BME280;3961;42.058;25.586;2023-06-14T12:48:06;65725.03;;;30.65;57.27
7832;BME280;3961;42.058;25.586;2023-06-14T12:50:34;65626.16;;;29.82;59.27
7832;BME280;3961;42.058;25.586;2023-06-14T12:53:00;65539.56;;;29.07;60.47
7832;BME280;3961;42.058;25.586;2023-06-14T12:55:25;65512.84;;;28.82;61.23
7832;BME280;3961;42.058;25.586;2023-06-14T12:57:51;65445.16;;;28.24;62.83
7832;BME280;3961;42.058;25.586;2023-06-14T13:00:17;65424.94;;;28.11;62.97
7832;BME280;3961;42.058;25.586;2023-06-14T13:02:43;65378.84;;;27.69;64.52
7832;BME280;3961;42.058;25.586;2023-06-14T13:05:09;65384.56;;;27.79;64.80
7832;BME280;3961;42.058;25.586;2023-06-14T13:07:34;65361.78;;;27.54;65.61
7832;BME280;3961;42.058;25.586;2023-06-14T13:10:00;65421.03;;;28.10;62.51
7832;BME280;3961;42.058;25.586;2023-06-14T13:12:26;65477.94;;;28.57;60.71
7832;BME280;3961;42.058;25.586;2023-06-14T13:14:52;65558.59;;;29.26;61.36
7832;BME280;3961;42.058;25.586;2023-06-14T13:17:17;65594.75;;;29.53;61.15
7832;BME280;3961;42.058;25.586;2023-06-14T13:19:43;65596.13;;;29.56;60.60